M I D A S
Marine Information and Data Acquisition System
Tripno 1294 of the Zeeleeuw from 2007-06-18 08:15:25 to 2007-06-18 15:08:36
Back to CruiseResearch ActivitiesStationsMapUnderway DataData graphs

EquipmentUnitsComment
TimeDGPSUTC
LatitudeDGPSDM.mWGS84
LongitudeDGPSDM.mWGS84
HeadingGyrodeg 
SOGDGPSknotsSpeed over ground
COGDGPSdegCourse over ground
DepthEcho soundermeters200 kHz
Missing or incorrect values are displayed as -999
Navigation data collected by the RV Zeeleeuw from 2007-06-18 08:18:21 to 2007-06-18 15:20:12
                                                                                    Next 1000 lines
Time Latitude Longitude Heading SOG COG Depth
2007-06-18 08:18:31 51°13.599 2°56.091 113.8 0.9 297 7.1
2007-06-18 08:18:36 51°13.599 2°56.088 113.7 1.2 294 7.1
2007-06-18 08:18:41 51°13.6 2°56.086 113.9 1.5 298 7.1
2007-06-18 08:18:46 51°13.601 2°56.082 114.3 1.8 294 7.2
2007-06-18 08:18:51 51°13.603 2°56.078 114.7 2 297 -999
2007-06-18 08:18:56 51°13.604 2°56.074 115.4 2.3 295 -999
2007-06-18 08:19:01 51°13.605 2°56.069 115.4 2.5 296 -999
2007-06-18 08:19:06 51°13.607 2°56.063 115.4 2.7 295 -999
2007-06-18 08:19:11 51°13.609 2°56.058 115.4 2.9 295 -999
2007-06-18 08:19:16 51°13.611 2°56.052 115.3 3.1 295 -999
2007-06-18 08:19:21 51°13.613 2°56.045 115.2 3.2 294 -999
2007-06-18 08:19:26 51°13.614 2°56.038 115 3.3 294 -999
2007-06-18 08:19:31 51°13.616 2°56.031 114.9 3.4 293 -999
2007-06-18 08:19:36 51°13.619 2°56.024 114.9 3.5 294 -999
2007-06-18 08:19:41 51°13.62 2°56.017 115.4 3.6 294 -999
2007-06-18 08:19:46 51°13.622 2°56.01 116 3.7 295 -999
2007-06-18 08:19:51 51°13.625 2°56.002 116.8 3.8 295 -999
2007-06-18 08:19:56 51°13.627 2°55.995 117.2 3.9 296 -999
2007-06-18 08:20:01 51°13.629 2°55.986 117.4 4 296 -999
2007-06-18 08:20:06 51°13.632 2°55.978 117.5 4.1 297 -999
2007-06-18 08:20:11 51°13.634 2°55.97 117.5 4.2 296 -999
2007-06-18 08:20:16 51°13.637 2°55.962 117.5 4.3 297 -999
2007-06-18 08:20:21 51°13.64 2°55.953 117.6 4.4 297 -999
2007-06-18 08:20:26 51°13.642 2°55.944 117.7 4.4 297 -999
2007-06-18 08:20:31 51°13.645 2°55.935 117.7 4.5 297 -999
2007-06-18 08:20:36 51°13.648 2°55.927 117.7 4.6 297 -999
2007-06-18 08:20:41 51°13.651 2°55.918 117.7 4.6 297 -999
2007-06-18 08:20:46 51°13.654 2°55.909 117.7 4.6 298 -999
2007-06-18 08:20:51 51°13.657 2°55.899 117.4 4.6 297 -999
2007-06-18 08:20:56 51°13.66 2°55.89 116.8 4.6 297 -999
2007-06-18 08:21:01 51°13.662 2°55.881 116.1 4.5 297 -999
2007-06-18 08:21:06 51°13.665 2°55.873 114.9 4.5 296 -999
2007-06-18 08:21:11 51°13.668 2°55.864 113.5 4.4 295 -999
2007-06-18 08:21:16 51°13.67 2°55.855 111.8 4.3 294 4.8
2007-06-18 08:21:21 51°13.673 2°55.846 110 4.3 293 -999
2007-06-18 08:21:26 51°13.675 2°55.838 107.9 4.1 291 -999
2007-06-18 08:21:31 51°13.677 2°55.83 106.1 3.8 290 -999
2007-06-18 08:21:36 51°13.678 2°55.822 103.5 3.7 288 9.7
2007-06-18 08:21:41 51°13.68 2°55.815 101.4 3.5 287 -999
2007-06-18 08:21:46 51°13.681 2°55.808 99.6 3.2 284 9.7
2007-06-18 08:21:51 51°13.682 2°55.801 97.8 2.9 284 9.5
2007-06-18 08:21:56 51°13.682 2°55.796 95.9 2.6 283 9.4
2007-06-18 08:22:01 51°13.683 2°55.791 93.4 2.3 280 9.4
2007-06-18 08:22:06 51°13.683 2°55.786 90.9 2.1 279 9.6
2007-06-18 08:22:11 51°13.684 2°55.782 88.5 1.9 278 9.7
2007-06-18 08:22:16 51°13.684 2°55.778 86.1 1.8 276 9.7
2007-06-18 08:22:21 51°13.684 2°55.774 83.9 1.8 275 9.8
2007-06-18 08:22:26 51°13.684 2°55.77 82.3 1.7 273 9.9
2007-06-18 08:22:31 51°13.684 2°55.767 80.9 1.6 272 9.9
2007-06-18 08:22:36 51°13.684 2°55.763 79.4 1.5 270 9.9
2007-06-18 08:22:41 51°13.684 2°55.76 77.9 1.4 270 10
2007-06-18 08:22:46 51°13.684 2°55.757 76.2 1.3 268 9.8
2007-06-18 08:22:51 51°13.684 2°55.754 74.6 1.2 266 9.7
2007-06-18 08:22:56 51°13.684 2°55.752 73 1.2 266 -999
2007-06-18 08:23:01 51°13.684 2°55.749 71.4 1.1 264 9.8
2007-06-18 08:23:06 51°13.684 2°55.747 70.4 1 265 9.7
2007-06-18 08:23:11 51°13.684 2°55.746 69.2 0.7 270 9.7
2007-06-18 08:23:16 51°13.684 2°55.745 68 0.5 273 -999
2007-06-18 08:23:21 51°13.684 2°55.744 65.5 0.4 290 9.7
2007-06-18 08:23:26 51°13.684 2°55.743 63.3 0.2 304 9.9
2007-06-18 08:23:31 51°13.685 2°55.743 61.6 0.3 334 10.1
2007-06-18 08:23:36 51°13.685 2°55.743 59.5 0.3 1 10.1
2007-06-18 08:23:41 51°13.686 2°55.743 57.3 0.4 9 10.1
2007-06-18 08:23:46 51°13.687 2°55.743 54.9 0.6 18 10.1
2007-06-18 08:23:51 51°13.688 2°55.744 52.5 1 28 10.2
2007-06-18 08:23:56 51°13.69 2°55.746 49.4 1.5 29 10.4
2007-06-18 08:24:01 51°13.692 2°55.748 44.4 1.9 26 10.3
2007-06-18 08:24:06 51°13.695 2°55.749 37.7 2.2 19 10.6
2007-06-18 08:24:11 51°13.698 2°55.751 30.2 2.5 14 10.8
2007-06-18 08:24:16 51°13.702 2°55.752 23.1 2.8 7 5.1
2007-06-18 08:24:21 51°13.707 2°55.752 16.3 3.2 1 11
2007-06-18 08:24:26 51°13.712 2°55.751 9 3.6 353 11.5
2007-06-18 08:24:31 51°13.717 2°55.748 0.7 4 345 11.7
2007-06-18 08:24:36 51°13.722 2°55.745 353.8 4.3 337 11.4
2007-06-18 08:24:41 51°13.728 2°55.74 343 4.3 331 11.1
2007-06-18 08:24:46 51°13.733 2°55.735 336.2 4.5 329 11
2007-06-18 08:24:51 51°13.738 2°55.729 332.2 4.5 325 11
2007-06-18 08:24:56 51°13.743 2°55.723 330.2 4.6 324 10.4
2007-06-18 08:25:01 51°13.748 2°55.717 328.6 4.6 323 10.2
2007-06-18 08:25:06 51°13.754 2°55.711 328.1 4.6 324 10.1
2007-06-18 08:25:11 51°13.759 2°55.705 328.1 4.7 323 10.1
2007-06-18 08:25:16 51°13.764 2°55.699 328 4.7 324 10
2007-06-18 08:25:21 51°13.769 2°55.692 328.2 4.9 324 10
2007-06-18 08:25:26 51°13.775 2°55.686 328.8 5.1 325 10
2007-06-18 08:25:31 51°13.781 2°55.679 329.7 5.3 326 10.1
2007-06-18 08:25:36 51°13.788 2°55.673 330.7 5.5 327 10.1
2007-06-18 08:25:41 51°13.795 2°55.666 331.6 5.8 328 10.1
2007-06-18 08:25:46 51°13.802 2°55.659 332.6 6.1 331 10.1
2007-06-18 08:25:51 51°13.81 2°55.653 333.9 6.3 332 10.1
2007-06-18 08:25:56 51°13.818 2°55.647 335.4 6.5 334 10.1
2007-06-18 08:26:01 51°13.826 2°55.64 336.5 6.7 335 10.1
2007-06-18 08:26:06 51°13.835 2°55.634 336.9 6.9 335 10.1
2007-06-18 08:26:11 51°13.844 2°55.627 337.2 7.1 335 10
2007-06-18 08:26:16 51°13.853 2°55.62 337.2 7.2 335 9.9
2007-06-18 08:26:21 51°13.862 2°55.613 337.2 7.3 335 9.9
2007-06-18 08:26:26 51°13.871 2°55.607 337.4 7.5 335 9.9
2007-06-18 08:26:31 51°13.881 2°55.599 337.5 7.6 335 9.8
2007-06-18 08:26:36 51°13.89 2°55.592 337.8 7.6 335 10
2007-06-18 08:26:41 51°13.9 2°55.585 337.8 7.7 334 9.8
2007-06-18 08:26:46 51°13.91 2°55.577 337.2 7.8 334 10
2007-06-18 08:26:51 51°13.919 2°55.569 337 7.8 334 10
2007-06-18 08:26:56 51°13.929 2°55.562 337.1 7.9 336 10.1
2007-06-18 08:27:01 51°13.94 2°55.555 337.9 8.1 335 10
2007-06-18 08:27:06 51°13.95 2°55.548 338.3 8.2 336 10
2007-06-18 08:27:11 51°13.961 2°55.54 338.4 8.3 336 9.9
2007-06-18 08:27:16 51°13.971 2°55.533 338.4 8.4 336 10
2007-06-18 08:27:21 51°13.982 2°55.525 338.4 8.4 336 10
2007-06-18 08:27:26 51°13.992 2°55.517 338.4 8.5 335 10
2007-06-18 08:27:31 51°14.003 2°55.509 338.2 8.6 335 10
2007-06-18 08:27:36 51°14.014 2°55.501 337.8 8.6 335 10
2007-06-18 08:27:41 51°14.025 2°55.493 337.5 8.6 334 9.8
2007-06-18 08:27:46 51°14.035 2°55.484 337.5 8.6 334 9.9
2007-06-18 08:27:51 51°14.046 2°55.476 337.5 8.7 334 9.9
2007-06-18 08:27:56 51°14.057 2°55.467 337.4 8.7 334 9.9
2007-06-18 08:28:01 51°14.068 2°55.459 337 8.7 333 9.9
2007-06-18 08:28:06 51°14.079 2°55.45 336.7 8.8 334 9.7
2007-06-18 08:28:11 51°14.09 2°55.442 336.9 8.7 334 9.6
2007-06-18 08:28:16 51°14.1 2°55.433 337.5 8.8 334 9.8
2007-06-18 08:28:21 51°14.111 2°55.425 337.4 8.8 334 9.9
2007-06-18 08:28:26 51°14.122 2°55.416 337.2 8.8 334 9.8
2007-06-18 08:28:31 51°14.133 2°55.408 337.2 8.8 334 9.9
2007-06-18 08:28:36 51°14.144 2°55.399 337.1 8.7 333 9.9
2007-06-18 08:28:41 51°14.155 2°55.39 336.2 8.7 332 9.9
2007-06-18 08:28:46 51°14.165 2°55.38 335.3 8.7 330 9.9
2007-06-18 08:28:51 51°14.175 2°55.37 333.8 8.7 329 9.9
2007-06-18 08:28:56 51°14.185 2°55.36 331.9 8.6 327 9.9
2007-06-18 08:29:01 51°14.195 2°55.349 329.9 8.6 325 9.9
2007-06-18 08:29:06 51°14.205 2°55.337 328.1 8.6 323 9.9
2007-06-18 08:29:11 51°14.214 2°55.326 326.2 8.6 323 10
2007-06-18 08:29:16 51°14.224 2°55.314 325.7 8.6 321 9.9
2007-06-18 08:29:21 51°14.233 2°55.302 325 8.6 321 9.9
2007-06-18 08:29:26 51°14.242 2°55.29 323.7 8.6 319 10
2007-06-18 08:29:31 51°14.251 2°55.277 322.2 8.5 318 9.9
2007-06-18 08:29:36 51°14.259 2°55.263 321 8.6 316 9.9
2007-06-18 08:29:41 51°14.268 2°55.25 318.8 8.6 314 9.6
2007-06-18 08:29:46 51°14.276 2°55.236 317.1 8.7 313 9.7
2007-06-18 08:29:51 51°14.284 2°55.221 316.1 8.9 312 10
2007-06-18 08:29:56 51°14.293 2°55.206 315.3 9.3 312 10
2007-06-18 08:30:01 51°14.301 2°55.19 314.6 9.7 311 10.2
2007-06-18 08:30:06 51°14.31 2°55.173 313.9 10 310 10.1
2007-06-18 08:30:11 51°14.319 2°55.155 313.2 10.2 309 10.2
2007-06-18 08:30:16 51°14.328 2°55.137 312.5 10.5 309 9.9
2007-06-18 08:30:21 51°14.338 2°55.119 311.7 10.9 308 9.9
2007-06-18 08:30:26 51°14.348 2°55.099 311 11.3 309 9.9
2007-06-18 08:30:31 51°14.358 2°55.079 311.3 11.7 308 9.9
2007-06-18 08:30:36 51°14.367 2°55.057 311.2 12 307 9.8
2007-06-18 08:30:41 51°14.377 2°55.035 310.2 12.2 304 9.7
2007-06-18 08:30:46 51°14.386 2°55.011 308.6 12.4 299 9.5
2007-06-18 08:30:51 51°14.393 2°54.986 304.6 12.6 294 9.5
2007-06-18 08:30:56 51°14.399 2°54.959 299.5 12.7 289 9.5
2007-06-18 08:31:01 51°14.403 2°54.932 294.6 12.9 285 9.4
2007-06-18 08:31:06 51°14.407 2°54.904 290.1 13.1 282 9.5
2007-06-18 08:31:11 51°14.41 2°54.875 286.5 13.2 280 9.4
2007-06-18 08:31:16 51°14.413 2°54.846 284.2 13.4 278 9.6
2007-06-18 08:31:21 51°14.415 2°54.816 282.3 13.5 277 9.7
2007-06-18 08:31:26 51°14.416 2°54.786 280.9 13.5 275 9.7
2007-06-18 08:31:31 51°14.417 2°54.756 279.7 13.6 272 9.8
2007-06-18 08:31:36 51°14.417 2°54.726 277.4 13.7 270 9.9
2007-06-18 08:31:41 51°14.416 2°54.696 274.4 13.7 267 9.8
2007-06-18 08:31:46 51°14.414 2°54.665 270.9 13.8 265 9.6
2007-06-18 08:31:51 51°14.412 2°54.635 268.9 13.8 263 9.6
2007-06-18 08:31:56 51°14.409 2°54.605 267.1 13.8 260 9.6
2007-06-18 08:32:01 51°14.405 2°54.575 264.2 13.8 257 9.8
2007-06-18 08:32:06 51°14.4 2°54.546 261.1 13.8 255 9.4
2007-06-18 08:32:11 51°14.394 2°54.517 258.2 13.8 253 9
2007-06-18 08:32:16 51°14.388 2°54.488 256.1 13.7 250 8.4
2007-06-18 08:32:21 51°14.381 2°54.46 253.9 13.6 250 8.2
2007-06-18 08:32:26 51°14.374 2°54.432 252.3 13.5 248 8.2
2007-06-18 08:32:31 51°14.367 2°54.405 250.7 13.5 247 8.2
2007-06-18 08:32:36 51°14.359 2°54.378 249.6 13.5 246 8
2007-06-18 08:32:41 51°14.351 2°54.351 248.7 13.6 245 8
2007-06-18 08:32:46 51°14.343 2°54.324 247.5 13.6 244 7.9
2007-06-18 08:32:51 51°14.334 2°54.297 246.4 13.6 243 7.8
2007-06-18 08:32:56 51°14.325 2°54.27 245.2 13.6 242 7.8
2007-06-18 08:33:01 51°14.316 2°54.244 244 13.6 242 7.8
2007-06-18 08:33:06 51°14.307 2°54.217 243.8 13.6 241 7.7
2007-06-18 08:33:11 51°14.298 2°54.191 243.2 13.6 241 7.7
2007-06-18 08:33:16 51°14.289 2°54.165 242.8 13.6 241 7.7
2007-06-18 08:33:21 51°14.28 2°54.139 242.4 13.6 240 7.6
2007-06-18 08:33:26 51°14.271 2°54.112 242.4 13.7 242 7.7
2007-06-18 08:33:31 51°14.261 2°54.086 242.6 13.7 241 7.6
2007-06-18 08:33:36 51°14.252 2°54.059 242.8 13.7 241 7.6
2007-06-18 08:33:41 51°14.243 2°54.033 243.1 13.7 242 7.6
2007-06-18 08:33:46 51°14.234 2°54.006 243.2 13.7 241 7.6
2007-06-18 08:33:51 51°14.225 2°53.979 243.3 13.7 242 7.6
2007-06-18 08:33:56 51°14.216 2°53.953 243.5 13.7 241 7.6
2007-06-18 08:34:01 51°14.207 2°53.926 243.4 13.7 241 7.7
2007-06-18 08:34:06 51°14.198 2°53.9 243.3 13.7 241 7.7
2007-06-18 08:34:11 51°14.188 2°53.873 243 13.7 241 7.7
2007-06-18 08:34:16 51°14.179 2°53.847 243 13.8 241 7.7
2007-06-18 08:34:21 51°14.17 2°53.82 242.8 13.7 241 7.8
2007-06-18 08:34:26 51°14.161 2°53.793 243 13.8 242 7.7
2007-06-18 08:34:31 51°14.152 2°53.766 243.1 13.8 242 7.8
2007-06-18 08:34:36 51°14.143 2°53.739 243.9 13.8 243 7.8
2007-06-18 08:34:41 51°14.134 2°53.712 244.3 13.8 243 7.8
2007-06-18 08:34:46 51°14.126 2°53.685 244.8 13.8 243 7.8
2007-06-18 08:34:51 51°14.117 2°53.658 244.9 13.9 243 7.8
2007-06-18 08:34:56 51°14.108 2°53.63 245.2 13.9 243 8
2007-06-18 08:35:01 51°14.099 2°53.603 244.8 13.9 242 7.9
2007-06-18 08:35:06 51°14.09 2°53.576 244.7 13.9 243 7.9
2007-06-18 08:35:11 51°14.081 2°53.549 244.6 13.9 242 7.9
2007-06-18 08:35:16 51°14.072 2°53.522 244.4 13.9 242 7.9
2007-06-18 08:35:21 51°14.063 2°53.494 244.4 14 243 8
2007-06-18 08:35:26 51°14.055 2°53.466 244.3 14 243 8
2007-06-18 08:35:31 51°14.046 2°53.439 245.1 14 245 8
2007-06-18 08:35:36 51°14.038 2°53.41 246.2 14 245 8
2007-06-18 08:35:41 51°14.031 2°53.382 247.6 14 247 8.2
2007-06-18 08:35:46 51°14.023 2°53.353 248.8 14.1 246 8.1
2007-06-18 08:35:51 51°14.015 2°53.325 249.6 14.1 248 8.2
2007-06-18 08:35:56 51°14.007 2°53.296 250.2 14.1 246 8.2
2007-06-18 08:36:01 51°13.999 2°53.268 249.8 14.1 245 8.3
2007-06-18 08:36:06 51°13.99 2°53.24 248.3 14.1 243 8.3
2007-06-18 08:36:11 51°13.981 2°53.213 246.4 14.1 242 8.3
2007-06-18 08:36:16 51°13.972 2°53.185 244.5 14.1 241 8.3
2007-06-18 08:36:21 51°13.961 2°53.158 243.4 14.2 239 8.3
2007-06-18 08:36:26 51°13.952 2°53.131 241.8 14.2 240 8.4
2007-06-18 08:36:31 51°13.941 2°53.105 241.3 14.2 238 8.3
2007-06-18 08:36:36 51°13.931 2°53.078 240.5 14.2 239 8.4
2007-06-18 08:36:41 51°13.92 2°53.052 240.2 14.2 238 8.4
2007-06-18 08:36:46 51°13.91 2°53.025 239.9 14.2 238 8.4
2007-06-18 08:36:51 51°13.899 2°52.998 239.9 14.2 238 8.5
2007-06-18 08:36:56 51°13.89 2°52.971 239.7 14.2 239 8.6
2007-06-18 08:37:01 51°13.879 2°52.944 240.4 14.2 239 8.7
2007-06-18 08:37:06 51°13.869 2°52.917 240.7 14.2 240 8.7
2007-06-18 08:37:11 51°13.86 2°52.89 241.4 14.2 241 8.6
2007-06-18 08:37:16 51°13.85 2°52.863 242.1 14.2 240 8.6
2007-06-18 08:37:21 51°13.84 2°52.835 242.4 14.2 241 8.6
2007-06-18 08:37:26 51°13.831 2°52.808 242.6 14.2 241 8.6
2007-06-18 08:37:31 51°13.821 2°52.78 243.2 14.2 241 8.7
2007-06-18 08:37:36 51°13.811 2°52.753 242.7 14.2 240 8.6
2007-06-18 08:37:41 51°13.801 2°52.726 242.7 14.2 240 8.7
2007-06-18 08:37:46 51°13.791 2°52.699 242 14.2 239 8.7
2007-06-18 08:37:51 51°13.781 2°52.672 241.5 14.2 240 8.7
2007-06-18 08:37:56 51°13.771 2°52.646 241.2 14.2 237 8.7
2007-06-18 08:38:01 51°13.761 2°52.619 240.2 14.2 240 8.7
2007-06-18 08:38:06 51°13.75 2°52.592 240.4 14.2 238 8.7
2007-06-18 08:38:11 51°13.741 2°52.565 240.4 14.2 240 8.8
2007-06-18 08:38:16 51°13.731 2°52.538 241.2 14.2 240 8.7
2007-06-18 08:38:21 51°13.721 2°52.51 242.1 14.2 242 8.7
2007-06-18 08:38:26 51°13.712 2°52.483 243.1 14.2 241 8.7
2007-06-18 08:38:31 51°13.703 2°52.454 243.8 14.2 243 8.9
2007-06-18 08:38:36 51°13.694 2°52.427 244.6 14.2 242 9.1
2007-06-18 08:38:41 51°13.685 2°52.398 244.8 14.2 244 8.8
2007-06-18 08:38:46 51°13.675 2°52.371 245.2 14.3 242 8.8
2007-06-18 08:38:51 51°13.667 2°52.343 245.1 14.2 243 8.9
2007-06-18 08:38:56 51°13.657 2°52.315 245.1 14.3 241 8.9
2007-06-18 08:39:01 51°13.648 2°52.287 244 14.2 241 8.9
2007-06-18 08:39:06 51°13.637 2°52.26 243.6 14.3 240 8.9
2007-06-18 08:39:11 51°13.628 2°52.233 242.6 14.3 241 9
2007-06-18 08:39:16 51°13.618 2°52.206 242.5 14.3 240 9
2007-06-18 08:39:21 51°13.608 2°52.178 242.2 14.3 240 9
2007-06-18 08:39:26 51°13.598 2°52.151 242.2 14.3 240 9
2007-06-18 08:39:31 51°13.589 2°52.124 242.2 14.3 241 9
2007-06-18 08:39:36 51°13.579 2°52.096 242.7 14.3 241 9
2007-06-18 08:39:41 51°13.57 2°52.068 243 14.3 242 9
2007-06-18 08:39:46 51°13.56 2°52.04 243.9 14.3 242 9
2007-06-18 08:39:51 51°13.551 2°52.012 244.2 14.3 243 9.1
2007-06-18 08:39:56 51°13.542 2°51.984 244.8 14.3 242 9
2007-06-18 08:40:01 51°13.533 2°51.956 244.9 14.3 243 9
2007-06-18 08:40:06 51°13.524 2°51.928 245.1 14.3 242 9.1
2007-06-18 08:40:11 51°13.515 2°51.9 244.7 14.3 242 9.1
2007-06-18 08:40:16 51°13.505 2°51.873 244.1 14.3 241 9.1
2007-06-18 08:40:21 51°13.495 2°51.845 243.3 14.3 241 9.1
2007-06-18 08:40:26 51°13.485 2°51.818 242.7 14.3 240 9.1
2007-06-18 08:40:31 51°13.475 2°51.79 242.3 14.3 240 9.1
2007-06-18 08:40:36 51°13.465 2°51.763 242 14.3 240 9.1
2007-06-18 08:40:41 51°13.455 2°51.736 241.8 14.3 240 9.1
2007-06-18 08:40:46 51°13.446 2°51.709 241.8 14.3 240 9.2
2007-06-18 08:40:51 51°13.436 2°51.681 241.8 14.2 241 9.2
2007-06-18 08:40:56 51°13.426 2°51.654 242.4 14.3 240 9.1
2007-06-18 08:41:01 51°13.417 2°51.626 242.5 14.3 242 9.1
2007-06-18 08:41:06 51°13.407 2°51.599 243.3 14.3 241 9.2
2007-06-18 08:41:11 51°13.398 2°51.571 243.4 14.2 243 9.2
2007-06-18 08:41:16 51°13.389 2°51.543 244.1 14.2 241 9.2
2007-06-18 08:41:21 51°13.379 2°51.515 244 14.3 243 9.1
2007-06-18 08:41:26 51°13.37 2°51.488 244.2 14.2 241 9.2
2007-06-18 08:41:31 51°13.361 2°51.46 244 14.3 242 9.2
2007-06-18 08:41:36 51°13.351 2°51.433 243.7 14.3 240 9.2
2007-06-18 08:41:41 51°13.341 2°51.405 243.3 14.3 241 9.2
2007-06-18 08:41:46 51°13.331 2°51.378 242.6 14.3 240 9.2
2007-06-18 08:41:51 51°13.322 2°51.35 242.4 14.3 241 9.2
2007-06-18 08:41:56 51°13.311 2°51.323 242.4 14.3 240 9.2
2007-06-18 08:42:01 51°13.302 2°51.296 242.2 14.3 240 9.2
2007-06-18 08:42:06 51°13.292 2°51.268 242.2 14.3 241 9.3
2007-06-18 08:42:11 51°13.282 2°51.241 242.3 14.3 240 9.3
2007-06-18 08:42:16 51°13.272 2°51.214 242.4 14.3 240 9.3
2007-06-18 08:42:21 51°13.263 2°51.186 242.4 14.3 240 9.3
2007-06-18 08:42:26 51°13.253 2°51.159 242.3 14.3 240 9.3
2007-06-18 08:42:31 51°13.243 2°51.132 242.1 14.3 240 9.4
2007-06-18 08:42:36 51°13.233 2°51.104 242.4 14.3 241 9.3
2007-06-18 08:42:41 51°13.224 2°51.076 243 14.3 241 9.3
2007-06-18 08:42:46 51°13.214 2°51.049 243.2 14.3 241 9.4
2007-06-18 08:42:51 51°13.205 2°51.021 243.3 14.3 241 9.4
2007-06-18 08:42:56 51°13.195 2°50.993 243.6 14.3 242 9.4
2007-06-18 08:43:01 51°13.186 2°50.965 243.8 14.3 242 9.4
2007-06-18 08:43:06 51°13.176 2°50.938 243.8 14.3 241 9.4
2007-06-18 08:43:11 51°13.167 2°50.91 243.3 14.3 242 9.4
2007-06-18 08:43:16 51°13.157 2°50.883 243.6 14.3 240 9.5
2007-06-18 08:43:21 51°13.147 2°50.855 243.4 14.3 242 9.6
2007-06-18 08:43:26 51°13.137 2°50.827 243.8 14.3 240 9.5
2007-06-18 08:43:31 51°13.128 2°50.799 243.2 14.3 242 9.5
2007-06-18 08:43:36 51°13.118 2°50.772 243.7 14.3 240 9.5
2007-06-18 08:43:41 51°13.109 2°50.744 243.1 14.3 242 9.5
2007-06-18 08:43:46 51°13.099 2°50.717 243.1 14.4 240 9.5
2007-06-18 08:43:51 51°13.089 2°50.689 242.6 14.3 241 9.6
2007-06-18 08:43:56 51°13.079 2°50.661 242.7 14.4 240 9.6
2007-06-18 08:44:01 51°13.07 2°50.633 243 14.3 241 9.5
2007-06-18 08:44:06 51°13.06 2°50.606 243.3 14.4 241 9.6
2007-06-18 08:44:11 51°13.05 2°50.578 243.3 14.4 242 9.6
2007-06-18 08:44:16 51°13.041 2°50.55 243.6 14.3 242 9.6
2007-06-18 08:44:21 51°13.032 2°50.522 243.8 14.4 242 9.7
2007-06-18 08:44:26 51°13.022 2°50.494 243.8 14.4 242 9.6
2007-06-18 08:44:31 51°13.013 2°50.466 244.2 14.3 242 9.7
2007-06-18 08:44:36 51°13.003 2°50.438 244.5 14.4 242 9.7
2007-06-18 08:44:41 51°12.994 2°50.41 244.5 14.4 242 9.6
2007-06-18 08:44:46 51°12.985 2°50.382 244.6 14.3 242 9.7
2007-06-18 08:44:51 51°12.975 2°50.354 244.1 14.4 241 9.7
2007-06-18 08:44:56 51°12.965 2°50.326 243.8 14.4 241 9.7
2007-06-18 08:45:01 51°12.955 2°50.299 243.7 14.4 240 9.8
2007-06-18 08:45:06 51°12.946 2°50.271 243 14.4 240 9.8
2007-06-18 08:45:11 51°12.936 2°50.244 242.5 14.4 240 9.6
2007-06-18 08:45:16 51°12.926 2°50.216 242.5 14.3 240 9.8
2007-06-18 08:45:21 51°12.915 2°50.189 242.4 14.4 240 9.8
2007-06-18 08:45:26 51°12.906 2°50.161 242 14.4 240 9.8
2007-06-18 08:45:31 51°12.896 2°50.134 242.5 14.4 240 9.8
2007-06-18 08:45:36 51°12.886 2°50.106 242.4 14.4 241 9.8
2007-06-18 08:45:41 51°12.876 2°50.078 242.5 14.4 240 9.8
2007-06-18 08:45:46 51°12.866 2°50.051 242.8 14.4 241 9.7
2007-06-18 08:45:51 51°12.856 2°50.023 242.9 14.4 241 9.9
2007-06-18 08:45:56 51°12.847 2°49.995 243.3 14.4 241 9.8
2007-06-18 08:46:01 51°12.837 2°49.967 243.7 14.4 242 9.8
2007-06-18 08:46:06 51°12.827 2°49.939 243.9 14.4 241 9.8
2007-06-18 08:46:11 51°12.818 2°49.911 243.7 14.4 242 9.9
2007-06-18 08:46:16 51°12.808 2°49.884 243.7 14.4 240 9.9
2007-06-18 08:46:21 51°12.798 2°49.856 242.9 14.4 241 9.8
2007-06-18 08:46:26 51°12.788 2°49.829 243.1 14.4 240 9.9
2007-06-18 08:46:31 51°12.779 2°49.801 243.1 14.4 241 9.9
2007-06-18 08:46:36 51°12.769 2°49.773 243.1 14.4 240 9.9
2007-06-18 08:46:41 51°12.759 2°49.745 243.1 14.3 242 9.9
2007-06-18 08:46:46 51°12.75 2°49.718 243.4 14.4 241 9.9
2007-06-18 08:46:51 51°12.74 2°49.69 243.7 14.3 242 9.9
2007-06-18 08:46:56 51°12.73 2°49.662 243.9 14.3 240 10
2007-06-18 08:47:01 51°12.721 2°49.635 243.8 14.3 242 10
2007-06-18 08:47:06 51°12.711 2°49.607 243.7 14.3 240 10
2007-06-18 08:47:11 51°12.702 2°49.58 243.2 14.3 241 9.9
2007-06-18 08:47:16 51°12.692 2°49.553 243 14.3 239 10
2007-06-18 08:47:21 51°12.682 2°49.525 242.9 14.2 241 10
2007-06-18 08:47:26 51°12.672 2°49.498 242.9 14.3 240 10
2007-06-18 08:47:31 51°12.663 2°49.47 242.6 14.2 241 10.1
2007-06-18 08:47:36 51°12.653 2°49.443 242.8 14.2 240 10
2007-06-18 08:47:41 51°12.643 2°49.415 242.8 14.3 241 9.9
2007-06-18 08:47:46 51°12.633 2°49.388 243.2 14.2 241 10.1
2007-06-18 08:47:51 51°12.624 2°49.361 243.3 14.2 241 10.1
2007-06-18 08:47:56 51°12.615 2°49.333 243.4 14.2 241 10.1
2007-06-18 08:48:01 51°12.605 2°49.305 243.9 14.2 242 10.1
2007-06-18 08:48:06 51°12.596 2°49.278 243.9 14.2 241 10.1
2007-06-18 08:48:11 51°12.586 2°49.25 244.1 14.2 242 10.1
2007-06-18 08:48:16 51°12.577 2°49.223 244.2 14.2 241 10.2
2007-06-18 08:48:21 51°12.567 2°49.195 244 14.2 241 10.2
2007-06-18 08:48:26 51°12.558 2°49.167 243.7 14.2 241 10.1
2007-06-18 08:48:31 51°12.548 2°49.14 243.3 14.2 240 10.1
2007-06-18 08:48:36 51°12.538 2°49.113 242.8 14.2 241 10.2
2007-06-18 08:48:41 51°12.528 2°49.086 242.6 14.1 240 10.1
2007-06-18 08:48:46 51°12.518 2°49.059 242.5 14.2 240 10
2007-06-18 08:48:51 51°12.509 2°49.032 242.7 14.2 241 10.2
2007-06-18 08:48:56 51°12.499 2°49.005 243.1 14.1 241 10.1
2007-06-18 08:49:01 51°12.49 2°48.977 243.1 14.1 241 10.1
2007-06-18 08:49:06 51°12.48 2°48.95 243.2 14.1 241 10
2007-06-18 08:49:11 51°12.471 2°48.923 243.3 14.1 241 10.1
2007-06-18 08:49:16 51°12.461 2°48.896 243.3 14.1 241 10.1
2007-06-18 08:49:21 51°12.452 2°48.868 243.6 14.1 240 10
2007-06-18 08:49:26 51°12.442 2°48.841 243.1 14.1 241 10.1
2007-06-18 08:49:31 51°12.433 2°48.814 243 14.2 240 10
2007-06-18 08:49:36 51°12.423 2°48.787 242.6 14.1 241 10.1
2007-06-18 08:49:41 51°12.413 2°48.76 242.6 14.1 240 10.1
2007-06-18 08:49:46 51°12.404 2°48.732 242.7 14.1 241 10.1
2007-06-18 08:49:51 51°12.394 2°48.705 243.2 14.1 241 10.1
2007-06-18 08:49:56 51°12.385 2°48.678 243.4 14.1 241 10.2
2007-06-18 08:50:01 51°12.375 2°48.651 243.5 14.1 241 10.1
2007-06-18 08:50:06 51°12.366 2°48.623 243.5 14.2 241 10.2
2007-06-18 08:50:11 51°12.356 2°48.596 243.4 14.1 241 10.1
2007-06-18 08:50:16 51°12.347 2°48.569 243.1 14.2 241 10.2
2007-06-18 08:50:21 51°12.337 2°48.541 243.1 14.2 241 10.1
2007-06-18 08:50:26 51°12.327 2°48.514 243.2 14.1 241 10.2
2007-06-18 08:50:31 51°12.318 2°48.487 243.1 14.2 240 10.1
2007-06-18 08:50:36 51°12.308 2°48.459 242.9 14.2 241 10.2
2007-06-18 08:50:41 51°12.298 2°48.432 243.1 14.1 240 10.1
2007-06-18 08:50:46 51°12.289 2°48.405 243.1 14.2 241 10.2
2007-06-18 08:50:51 51°12.279 2°48.378 243.3 14.1 241 10.2
2007-06-18 08:50:56 51°12.27 2°48.35 243.8 14.2 241 10.2
2007-06-18 08:51:01 51°12.26 2°48.323 243.7 14.2 241 10.2
2007-06-18 08:51:06 51°12.251 2°48.295 243.4 14.1 241 10.2
2007-06-18 08:51:11 51°12.241 2°48.268 243.6 14.1 241 10.2
2007-06-18 08:51:16 51°12.232 2°48.241 243.4 14.1 241 10.2
2007-06-18 08:51:21 51°12.222 2°48.213 243.4 14.2 241 10.2
2007-06-18 08:51:26 51°12.213 2°48.186 243.4 14.1 242 10.2
2007-06-18 08:51:31 51°12.203 2°48.159 243.6 14.1 241 10.1
2007-06-18 08:51:36 51°12.194 2°48.132 243.2 14.1 241 10.2
2007-06-18 08:51:41 51°12.184 2°48.105 243.2 14.1 240 10.1
2007-06-18 08:51:46 51°12.174 2°48.078 242.9 14.1 240 10.2
2007-06-18 08:51:51 51°12.165 2°48.05 242.5 14.1 241 10.2
2007-06-18 08:51:56 51°12.155 2°48.023 242.6 14.1 241 10.2
2007-06-18 08:52:01 51°12.146 2°47.996 242.8 14.1 241 10.2
2007-06-18 08:52:06 51°12.136 2°47.969 243.4 14.1 241 10.2
2007-06-18 08:52:11 51°12.127 2°47.941 243.6 14.1 241 10.2
2007-06-18 08:52:16 51°12.117 2°47.914 243.8 14.1 241 10.2
2007-06-18 08:52:21 51°12.108 2°47.886 243.8 14.1 242 10.1
2007-06-18 08:52:26 51°12.099 2°47.859 243.5 14.1 240 10.2
2007-06-18 08:52:31 51°12.089 2°47.832 243.3 14.1 241 10.2
2007-06-18 08:52:36 51°12.08 2°47.805 243.3 14 241 10.2
2007-06-18 08:52:41 51°12.07 2°47.778 243.1 14.1 241 10.1
2007-06-18 08:52:46 51°12.06 2°47.751 242.9 14.1 241 10.2
2007-06-18 08:52:51 51°12.051 2°47.724 242.9 14 240 10.2
2007-06-18 08:52:56 51°12.041 2°47.697 242.4 14.1 241 10.2
2007-06-18 08:53:01 51°12.032 2°47.67 242.6 14 241 10.1
2007-06-18 08:53:06 51°12.022 2°47.643 242.7 14 241 10.1
2007-06-18 08:53:11 51°12.013 2°47.616 242.9 14.1 241 10.2
2007-06-18 08:53:16 51°12.003 2°47.589 243.1 14.1 241 10.1
2007-06-18 08:53:21 51°11.994 2°47.561 243.1 14 241 10.2
2007-06-18 08:53:26 51°11.984 2°47.534 243.4 14.1 241 10.2
2007-06-18 08:53:31 51°11.975 2°47.507 243.3 14.1 241 10.2
2007-06-18 08:53:36 51°11.965 2°47.48 243.3 14.1 241 10.1
2007-06-18 08:53:41 51°11.956 2°47.453 243 14.1 241 10.1
2007-06-18 08:53:46 51°11.946 2°47.426 242.8 14.1 241 10.1
2007-06-18 08:53:51 51°11.937 2°47.399 242.8 14 241 10.1
2007-06-18 08:53:56 51°11.928 2°47.371 243 14 241 10.1
2007-06-18 08:54:01 51°11.919 2°47.344 243.5 14 242 10.1
2007-06-18 08:54:06 51°11.909 2°47.317 243.8 14 242 10.1
2007-06-18 08:54:11 51°11.9 2°47.29 243.8 14 241 10
2007-06-18 08:54:16 51°11.89 2°47.263 243.8 14 241 10
2007-06-18 08:54:21 51°11.881 2°47.235 243.7 14 241 10
2007-06-18 08:54:26 51°11.872 2°47.208 243.4 14 241 10
2007-06-18 08:54:31 51°11.863 2°47.181 243.1 14 242 10
2007-06-18 08:54:36 51°11.853 2°47.154 243.1 13.9 241 10.1
2007-06-18 08:54:41 51°11.844 2°47.127 243 14 241 9.9
2007-06-18 08:54:46 51°11.834 2°47.1 243.1 14 241 9.9
2007-06-18 08:54:51 51°11.825 2°47.073 243.1 14 241 9.9
2007-06-18 08:54:56 51°11.816 2°47.047 243.1 13.9 241 9.9
2007-06-18 08:55:01 51°11.806 2°47.02 243 14 241 9.9
2007-06-18 08:55:06 51°11.797 2°46.993 242.7 13.9 241 9.8
2007-06-18 08:55:11 51°11.787 2°46.966 242.9 14 241 9.9
2007-06-18 08:55:16 51°11.778 2°46.939 242.9 13.9 241 9.8
2007-06-18 08:55:21 51°11.768 2°46.913 242.9 13.9 241 10
2007-06-18 08:55:26 51°11.759 2°46.886 242.9 14 241 9.9
2007-06-18 08:55:31 51°11.749 2°46.859 242.7 13.9 241 9.8
2007-06-18 08:55:36 51°11.74 2°46.832 242.7 13.9 241 9.8
2007-06-18 08:55:41 51°11.73 2°46.805 242.8 14 241 9.8
2007-06-18 08:55:46 51°11.721 2°46.778 243 13.9 242 9.7
2007-06-18 08:55:51 51°11.712 2°46.751 243.1 13.9 241 9.7
2007-06-18 08:55:56 51°11.703 2°46.723 243.1 14 244 9.8
2007-06-18 08:56:01 51°11.695 2°46.696 244.6 14 244 9.8
2007-06-18 08:56:06 51°11.687 2°46.667 245.8 14 246 9.8
2007-06-18 08:56:11 51°11.679 2°46.639 247.1 14 246 9.8
2007-06-18 08:56:16 51°11.672 2°46.61 248.9 13.9 249 9.8
2007-06-18 08:56:21 51°11.665 2°46.581 251 14 249 9.8
2007-06-18 08:56:26 51°11.659 2°46.552 252.2 14 251 9.8
2007-06-18 08:56:31 51°11.653 2°46.523 253.3 14 251 9.9
2007-06-18 08:56:36 51°11.647 2°46.494 254 14 252 10
2007-06-18 08:56:41 51°11.641 2°46.464 254.7 14 252 10.1
2007-06-18 08:56:46 51°11.635 2°46.435 255 14 252 10.1
2007-06-18 08:56:51 51°11.629 2°46.405 255.1 14 252 10.1
2007-06-18 08:56:56 51°11.622 2°46.376 255 14 251 10.1
2007-06-18 08:57:01 51°11.616 2°46.347 254.5 14.1 251 10.2
2007-06-18 08:57:06 51°11.61 2°46.318 254 14 251 10.1
2007-06-18 08:57:11 51°11.603 2°46.289 253.7 14.1 250 10.2
2007-06-18 08:57:16 51°11.597 2°46.259 253.4 14 251 10.2
2007-06-18 08:57:21 51°11.59 2°46.23 253.4 14 249 10.2
2007-06-18 08:57:26 51°11.583 2°46.201 252.8 14.1 251 10.3
2007-06-18 08:57:31 51°11.577 2°46.172 253.4 14 250 10.3
2007-06-18 08:57:36 51°11.57 2°46.142 253.3 14.1 250 10.3
2007-06-18 08:57:41 51°11.564 2°46.113 253.3 14.1 251 10.3
2007-06-18 08:57:46 51°11.557 2°46.084 253.8 14.1 251 10.2
2007-06-18 08:57:51 51°11.551 2°46.054 253.9 14.1 251 10.2
2007-06-18 08:57:56 51°11.544 2°46.025 253.9 14.1 251 10.2
2007-06-18 08:58:01 51°11.538 2°45.995 254 14.1 251 10.2
2007-06-18 08:58:06 51°11.532 2°45.966 253.9 14.1 251 10.3
2007-06-18 08:58:11 51°11.525 2°45.937 253.7 14.1 250 10.3
2007-06-18 08:58:16 51°11.518 2°45.907 253.4 14.1 250 10.3
2007-06-18 08:58:21 51°11.512 2°45.878 253.3 14 250 10.3
2007-06-18 08:58:26 51°11.505 2°45.849 253.1 14.1 250 10.3
2007-06-18 08:58:31 51°11.499 2°45.82 252.8 14.1 251 10.3
2007-06-18 08:58:36 51°11.492 2°45.79 253.5 14 252 10.3
2007-06-18 08:58:41 51°11.486 2°45.76 254.3 14.1 252 10.3
2007-06-18 08:58:46 51°11.481 2°45.731 254.9 14.1 253 10.3
2007-06-18 08:58:51 51°11.475 2°45.701 255.9 14.1 253 10.5
2007-06-18 08:58:56 51°11.469 2°45.671 256.3 14.1 254 10.4
2007-06-18 08:59:01 51°11.464 2°45.641 256.8 14.1 252 10.4
2007-06-18 08:59:06 51°11.458 2°45.612 256.5 14.1 253 10.3
2007-06-18 08:59:11 51°11.452 2°45.582 256.4 14.1 252 10.4
2007-06-18 08:59:16 51°11.446 2°45.552 255.6 14 252 10.5
2007-06-18 08:59:21 51°11.44 2°45.523 255.3 14 252 10.5
2007-06-18 08:59:26 51°11.434 2°45.493 255.2 14.1 252 10.5
2007-06-18 08:59:31 51°11.428 2°45.464 255.1 14.1 252 10.6
2007-06-18 08:59:36 51°11.422 2°45.434 255.2 14 253 10.6
2007-06-18 08:59:41 51°11.416 2°45.404 255.6 14.1 252 10.6
2007-06-18 08:59:46 51°11.41 2°45.375 255.4 14.1 253 10.5
2007-06-18 08:59:51 51°11.405 2°45.345 255.6 14.1 252 10.6
2007-06-18 08:59:56 51°11.399 2°45.315 255.7 14.1 253 10.5
2007-06-18 09:00:01 51°11.393 2°45.286 255.7 14.1 252 10.5
2007-06-18 09:00:06 51°11.387 2°45.256 255.5 14.1 253 10.5
2007-06-18 09:00:11 51°11.381 2°45.227 255.5 14.1 252 10.6
2007-06-18 09:00:16 51°11.375 2°45.197 255.4 14.1 253 10.5
2007-06-18 09:00:21 51°11.369 2°45.167 255.5 14.1 252 10.6
2007-06-18 09:00:26 51°11.363 2°45.138 255.7 14.1 253 10.5
2007-06-18 09:00:31 51°11.358 2°45.108 255.6 14.1 253 10.5
2007-06-18 09:00:36 51°11.352 2°45.078 255.8 14.1 252 10.5
2007-06-18 09:00:41 51°11.346 2°45.049 255.7 14.1 251 10.5
2007-06-18 09:00:46 51°11.338 2°45.02 254.6 14 249 10.6
2007-06-18 09:00:51 51°11.331 2°44.991 252.2 14 248 10.6
2007-06-18 09:00:56 51°11.323 2°44.963 250.9 14 245 10.6
2007-06-18 09:01:01 51°11.315 2°44.934 248.5 14.1 245 10.6
2007-06-18 09:01:06 51°11.306 2°44.907 247.5 14.1 244 10.6
2007-06-18 09:01:11 51°11.298 2°44.879 246.7 14.1 243 10.6
2007-06-18 09:01:16 51°11.289 2°44.851 245.9 14.1 244 10.6
2007-06-18 09:01:21 51°11.28 2°44.823 245.7 14.1 243 10.5
2007-06-18 09:01:26 51°11.272 2°44.795 245.6 14.1 244 10.5
2007-06-18 09:01:31 51°11.264 2°44.767 246 14 245 10.5
2007-06-18 09:01:36 51°11.256 2°44.739 246.7 14 245 10.5
2007-06-18 09:01:41 51°11.247 2°44.711 247.5 14.1 246 10.4
2007-06-18 09:01:46 51°11.239 2°44.682 248 14 246 10.4
2007-06-18 09:01:51 51°11.231 2°44.654 248.2 14.1 246 10.4
2007-06-18 09:01:56 51°11.223 2°44.626 248.2 14.1 246 10.4
2007-06-18 09:02:01 51°11.216 2°44.598 248.2 14.1 246 10.4
2007-06-18 09:02:06 51°11.208 2°44.569 248.2 14.1 246 10.4
2007-06-18 09:02:11 51°11.199 2°44.541 247.9 14.1 246 10.3
2007-06-18 09:02:16 51°11.191 2°44.513 247.6 14.1 245 10.4
2007-06-18 09:02:21 51°11.183 2°44.484 247.7 14.1 245 10.3
2007-06-18 09:02:26 51°11.175 2°44.456 247.5 14.1 245 10.3
2007-06-18 09:02:31 51°11.167 2°44.428 247.5 14.2 245 10.2
2007-06-18 09:02:36 51°11.159 2°44.4 247.4 14.1 246 10.2
2007-06-18 09:02:41 51°11.15 2°44.372 247.6 14.1 245 10.2
2007-06-18 09:02:46 51°11.142 2°44.343 247.4 14.1 246 10.2
2007-06-18 09:02:51 51°11.134 2°44.315 247.6 14.1 245 10.1
2007-06-18 09:02:56 51°11.126 2°44.286 247.6 14.1 246 10.2
2007-06-18 09:03:01 51°11.118 2°44.258 248.1 14.1 246 10.2
2007-06-18 09:03:06 51°11.111 2°44.23 248.2 14.1 246 10.2
2007-06-18 09:03:11 51°11.103 2°44.201 248.6 14.1 246 10.2
2007-06-18 09:03:16 51°11.095 2°44.173 248.6 14.1 246 10.2
2007-06-18 09:03:21 51°11.087 2°44.145 248.4 14.1 246 10.2
2007-06-18 09:03:26 51°11.078 2°44.117 248 14 245 10.2
2007-06-18 09:03:31 51°11.07 2°44.088 247.8 14 245 10.1
2007-06-18 09:03:36 51°11.062 2°44.06 247.5 14 246 10.2
2007-06-18 09:03:41 51°11.054 2°44.032 247.6 14 245 10.1
2007-06-18 09:03:46 51°11.046 2°44.004 247.8 14.1 246 10
2007-06-18 09:03:51 51°11.038 2°43.975 248.2 14.1 246 10
2007-06-18 09:03:56 51°11.03 2°43.947 248.3 14 246 10.1
2007-06-18 09:04:01 51°11.022 2°43.919 248.2 14 246 10
2007-06-18 09:04:06 51°11.014 2°43.89 248 14.1 245 10
2007-06-18 09:04:11 51°11.006 2°43.862 247.9 14 246 10.1
2007-06-18 09:04:16 51°10.998 2°43.834 248.1 14.1 246 10.1
2007-06-18 09:04:21 51°10.99 2°43.806 248.1 14 246 10
2007-06-18 09:04:26 51°10.982 2°43.777 248.1 14 246 10
2007-06-18 09:04:31 51°10.974 2°43.749 248.2 14.1 246 10
2007-06-18 09:04:36 51°10.966 2°43.721 248.2 14.1 246 10
2007-06-18 09:04:41 51°10.958 2°43.692 248.1 14.1 246 9.9
2007-06-18 09:04:46 51°10.95 2°43.664 248 14 246 9.9
2007-06-18 09:04:51 51°10.942 2°43.636 248.1 14.1 246 9.9
2007-06-18 09:04:56 51°10.934 2°43.608 248 14 246 9.9
2007-06-18 09:05:01 51°10.926 2°43.579 248.2 14.1 246 9.9
2007-06-18 09:05:06 51°10.919 2°43.551 248.2 14.1 247 9.9
2007-06-18 09:05:11 51°10.911 2°43.522 248.6 14.1 246 9.9
2007-06-18 09:05:16 51°10.903 2°43.494 248.6 14.1 246 9.8
2007-06-18 09:05:21 51°10.895 2°43.466 248.6 14 247 9.8
2007-06-18 09:05:26 51°10.887 2°43.437 248.8 14 246 9.8
2007-06-18 09:05:31 51°10.88 2°43.409 248.6 14.1 246 9.8
2007-06-18 09:05:36 51°10.871 2°43.38 248.5 14.1 246 9.8
2007-06-18 09:05:41 51°10.863 2°43.352 248.1 14 246 9.8
2007-06-18 09:05:46 51°10.855 2°43.324 248.1 14 245 9.8
2007-06-18 09:05:51 51°10.848 2°43.296 247.7 14.1 246 9.7
2007-06-18 09:05:56 51°10.839 2°43.268 247.6 14.1 245 9.7
2007-06-18 09:06:01 51°10.832 2°43.239 247.8 14.1 246 9.8
2007-06-18 09:06:06 51°10.823 2°43.211 248.2 14 246 9.7
2007-06-18 09:06:11 51°10.816 2°43.182 248.3 14 246 9.7
2007-06-18 09:06:16 51°10.807 2°43.154 248.2 14.1 245 9.7
2007-06-18 09:06:21 51°10.8 2°43.126 247.8 14.1 246 9.7
2007-06-18 09:06:26 51°10.791 2°43.098 248.2 14 245 9.6
2007-06-18 09:06:31 51°10.783 2°43.069 247.7 14.1 246 9.6
2007-06-18 09:06:36 51°10.775 2°43.041 247.7 14 246 9.7
2007-06-18 09:06:41 51°10.767 2°43.013 247.9 14.1 246 9.7
2007-06-18 09:06:46 51°10.759 2°42.985 247.8 14.1 246 9.6
2007-06-18 09:06:51 51°10.751 2°42.956 248.1 14 245 9.6
2007-06-18 09:06:56 51°10.743 2°42.928 248.1 14 246 9.6
2007-06-18 09:07:01 51°10.735 2°42.9 248.1 14.1 246 9.6
2007-06-18 09:07:06 51°10.728 2°42.871 248.1 14 246 9.6
2007-06-18 09:07:11 51°10.719 2°42.843 248 14 245 9.6
2007-06-18 09:07:16 51°10.711 2°42.815 247.6 14.1 246 9.6
2007-06-18 09:07:21 51°10.703 2°42.787 247.7 14 246 9.5
2007-06-18 09:07:26 51°10.695 2°42.759 247.7 14 246 9.5
2007-06-18 09:07:31 51°10.688 2°42.73 247.9 14 246 9.6
2007-06-18 09:07:36 51°10.679 2°42.702 248.1 14.1 246 9.5
2007-06-18 09:07:41 51°10.671 2°42.674 247.9 14.1 246 9.5
2007-06-18 09:07:46 51°10.663 2°42.646 247.9 14 245 9.5
2007-06-18 09:07:51 51°10.655 2°42.618 247.6 14 246 9.5
2007-06-18 09:07:56 51°10.647 2°42.59 247.6 14 245 9.5
2007-06-18 09:08:01 51°10.639 2°42.561 247.4 14 246 9.5
2007-06-18 09:08:06 51°10.631 2°42.533 247.7 13.9 245 9.5
2007-06-18 09:08:11 51°10.623 2°42.505 247.8 14 246 9.4
2007-06-18 09:08:16 51°10.615 2°42.477 247.8 14 246 9.5
2007-06-18 09:08:21 51°10.608 2°42.448 248.5 14 247 9.4
2007-06-18 09:08:26 51°10.6 2°42.42 248.9 14 246 9.4
2007-06-18 09:08:31 51°10.592 2°42.392 249 14 247 9.4
2007-06-18 09:08:36 51°10.584 2°42.363 249 14 246 9.3
2007-06-18 09:08:41 51°10.576 2°42.335 248.8 14 245 9.4
2007-06-18 09:08:46 51°10.568 2°42.307 248.2 14 246 9.3
2007-06-18 09:08:51 51°10.56 2°42.279 247.8 14 245 9.4
2007-06-18 09:08:56 51°10.552 2°42.251 247.5 14 245 9.3
2007-06-18 09:09:01 51°10.544 2°42.223 247.5 14 246 9.2
2007-06-18 09:09:06 51°10.536 2°42.195 247.6 14 246 9.3
2007-06-18 09:09:11 51°10.528 2°42.167 248.2 13.9 246 9.3
2007-06-18 09:09:16 51°10.521 2°42.138 248.4 14 248 9.3
2007-06-18 09:09:21 51°10.513 2°42.11 249.1 13.9 247 9.3
2007-06-18 09:09:26 51°10.506 2°42.082 249.5 14 247 9.3
2007-06-18 09:09:31 51°10.499 2°42.054 249.5 13.9 247 9.2
2007-06-18 09:09:36 51°10.491 2°42.025 249.7 13.9 247 9.3
2007-06-18 09:09:41 51°10.483 2°41.997 249.2 13.9 246 9.3
2007-06-18 09:09:46 51°10.475 2°41.969 248.7 13.9 246 9.2
2007-06-18 09:09:51 51°10.467 2°41.941 248.1 13.9 245 9.3
2007-06-18 09:09:56 51°10.459 2°41.913 247.6 14 245 9.2
2007-06-18 09:10:01 51°10.451 2°41.886 247.3 13.9 245 9.2
2007-06-18 09:10:06 51°10.442 2°41.858 247.2 13.9 245 9.3
2007-06-18 09:10:11 51°10.434 2°41.83 247 13.9 245 9.2
2007-06-18 09:10:16 51°10.426 2°41.802 247 13.9 246 9.2
2007-06-18 09:10:21 51°10.418 2°41.774 247.5 14 245 9.1
2007-06-18 09:10:26 51°10.41 2°41.746 247.8 13.9 246 9.1
2007-06-18 09:10:31 51°10.403 2°41.718 248.2 13.9 246 9.2
2007-06-18 09:10:36 51°10.395 2°41.69 248.6 13.9 248 9.2
2007-06-18 09:10:41 51°10.388 2°41.661 249.5 13.9 247 9.2
2007-06-18 09:10:46 51°10.38 2°41.633 249.7 14 247 9.1
2007-06-18 09:10:51 51°10.373 2°41.604 249.7 13.9 248 9.2
2007-06-18 09:10:56 51°10.366 2°41.576 250 13.9 247 9.2
2007-06-18 09:11:01 51°10.358 2°41.548 250 13.9 247 9.2
2007-06-18 09:11:06 51°10.35 2°41.52 249.1 14 246 9.2
2007-06-18 09:11:11 51°10.342 2°41.492 248.8 13.9 246 9.1
2007-06-18 09:11:16 51°10.334 2°41.464 248.5 13.9 246 9.2
2007-06-18 09:11:21 51°10.326 2°41.436 248.1 13.9 245 9.2
2007-06-18 09:11:26 51°10.318 2°41.408 247.6 13.9 246 9.2
2007-06-18 09:11:31 51°10.31 2°41.38 247.8 13.9 245 9.1
2007-06-18 09:11:36 51°10.302 2°41.352 247.5 13.9 246 9.1
2007-06-18 09:11:41 51°10.294 2°41.324 247.6 14 246 9.1
2007-06-18 09:11:46 51°10.286 2°41.296 247.8 13.9 246 9.2
2007-06-18 09:11:51 51°10.279 2°41.268 248.1 13.9 246 9.2
2007-06-18 09:11:56 51°10.271 2°41.24 248.2 13.9 246 9.2
2007-06-18 09:12:01 51°10.263 2°41.212 248.3 13.9 246 9.2
2007-06-18 09:12:06 51°10.255 2°41.184 248.4 13.9 247 9.2
2007-06-18 09:12:11 51°10.248 2°41.156 248.6 13.9 246 9.2
2007-06-18 09:12:16 51°10.24 2°41.127 248.8 13.9 246 9.2
2007-06-18 09:12:21 51°10.232 2°41.099 248.5 13.9 246 9.1
2007-06-18 09:12:26 51°10.224 2°41.071 248.2 13.9 246 9.1
2007-06-18 09:12:31 51°10.216 2°41.043 248.2 13.9 245 9.2
2007-06-18 09:12:36 51°10.208 2°41.016 247.8 13.9 245 9.2
2007-06-18 09:12:41 51°10.2 2°40.988 247.5 13.9 245 9.1
2007-06-18 09:12:46 51°10.191 2°40.96 247.1 13.9 245 9.1
2007-06-18 09:12:51 51°10.183 2°40.932 247.1 13.9 245 9.1
2007-06-18 09:12:56 51°10.175 2°40.904 247.1 13.9 246 9.1
2007-06-18 09:13:01 51°10.167 2°40.877 247.5 13.9 245 9.1
2007-06-18 09:13:06 51°10.16 2°40.848 247.6 13.9 246 9.2
2007-06-18 09:13:11 51°10.152 2°40.82 248.2 14 246 9.1
2007-06-18 09:13:16 51°10.144 2°40.792 248.6 13.9 247 9.2
2007-06-18 09:13:21 51°10.137 2°40.764 249.3 13.9 247 9.2
2007-06-18 09:13:26 51°10.129 2°40.735 249.5 13.9 248 9.2
2007-06-18 09:13:31 51°10.122 2°40.707 249.7 13.9 248 9.1
2007-06-18 09:13:36 51°10.115 2°40.678 250.3 13.9 248 9.1
2007-06-18 09:13:41 51°10.107 2°40.65 250.3 13.9 248 9.1
2007-06-18 09:13:46 51°10.1 2°40.622 250.3 13.9 247 9.2
2007-06-18 09:13:51 51°10.092 2°40.593 249.6 14 247 9.2
2007-06-18 09:13:56 51°10.084 2°40.565 249.3 13.9 246 9.2
2007-06-18 09:14:01 51°10.077 2°40.537 248.5 13.9 246 9.2
2007-06-18 09:14:06 51°10.068 2°40.509 248.4 13.9 245 9.2
2007-06-18 09:14:11 51°10.06 2°40.481 247.7 14 246 9.2
2007-06-18 09:14:16 51°10.052 2°40.453 247.5 13.9 245 9.2
2007-06-18 09:14:21 51°10.044 2°40.425 247.4 13.9 245 9.1
2007-06-18 09:14:26 51°10.036 2°40.398 247.2 13.9 244 9.1
2007-06-18 09:14:31 51°10.028 2°40.37 247 13.9 245 9.1
2007-06-18 09:14:36 51°10.02 2°40.342 247.1 14 246 9.2
2007-06-18 09:14:41 51°10.012 2°40.314 247.6 13.9 246 9.1
2007-06-18 09:14:46 51°10.004 2°40.286 248.3 13.9 247 9.1
2007-06-18 09:14:51 51°9.997 2°40.257 248.9 13.9 247 9.1
2007-06-18 09:14:56 51°9.99 2°40.229 249.3 13.9 247 9.2
2007-06-18 09:15:01 51°9.983 2°40.2 249.7 13.9 248 9.1
2007-06-18 09:15:06 51°9.975 2°40.172 250.1 13.9 247 9.1
2007-06-18 09:15:11 51°9.968 2°40.144 250.1 13.9 248 9.2
2007-06-18 09:15:16 51°9.96 2°40.116 250.2 13.9 247 9.1
2007-06-18 09:15:21 51°9.953 2°40.087 249.6 13.9 247 9.1
2007-06-18 09:15:26 51°9.945 2°40.06 248.9 13.9 245 9.1
2007-06-18 09:15:31 51°9.937 2°40.032 248.1 13.9 246 9.1
2007-06-18 09:15:36 51°9.928 2°40.004 247.9 13.9 245 9.1
2007-06-18 09:15:41 51°9.92 2°39.976 247.5 13.9 245 9.1
2007-06-18 09:15:46 51°9.912 2°39.948 247.5 13.8 245 9.1
2007-06-18 09:15:51 51°9.904 2°39.921 247.2 13.8 245 9.1
2007-06-18 09:15:56 51°9.896 2°39.893 246.9 13.8 245 9.2
2007-06-18 09:16:01 51°9.888 2°39.866 247.1 13.8 245 9
2007-06-18 09:16:06 51°9.88 2°39.838 247.4 13.9 245 9.1
2007-06-18 09:16:11 51°9.872 2°39.81 247.6 13.8 246 9.3
2007-06-18 09:16:16 51°9.864 2°39.782 247.8 13.8 246 9.1
2007-06-18 09:16:21 51°9.856 2°39.754 247.6 13.9 246 9.1
2007-06-18 09:16:26 51°9.849 2°39.726 248.1 13.8 249 9.1
2007-06-18 09:16:31 51°9.843 2°39.697 250.2 13.8 250 9.1
2007-06-18 09:16:36 51°9.837 2°39.668 251.9 13.8 251 9.1
2007-06-18 09:16:41 51°9.831 2°39.639 253.5 13.8 253 9.1
2007-06-18 09:16:46 51°9.825 2°39.61 254.9 13.8 253 9.1
2007-06-18 09:16:51 51°9.82 2°39.581 255.7 13.8 254 9.2
2007-06-18 09:16:56 51°9.815 2°39.551 256.5 13.8 254 9.2
2007-06-18 09:17:01 51°9.81 2°39.522 257 13.8 255 9.2
2007-06-18 09:17:06 51°9.804 2°39.492 257.3 13.8 254 9.1
2007-06-18 09:17:11 51°9.799 2°39.463 257.6 13.8 254 9.2
2007-06-18 09:17:16 51°9.794 2°39.434 257.4 13.8 253 9.3
2007-06-18 09:17:21 51°9.788 2°39.405 256.7 13.9 253 9.3
2007-06-18 09:17:26 51°9.782 2°39.376 256.1 13.8 252 9.3
2007-06-18 09:17:31 51°9.776 2°39.347 255.4 13.8 252 9.3
2007-06-18 09:17:36 51°9.77 2°39.318 254.9 13.8 252 9.4
2007-06-18 09:17:41 51°9.764 2°39.288 254.7 13.9 252 9.3
2007-06-18 09:17:46 51°9.758 2°39.259 254.8 13.9 252 9.3
2007-06-18 09:17:51 51°9.753 2°39.23 254.9 13.8 253 9.5
2007-06-18 09:17:56 51°9.747 2°39.201 255.3 13.8 252 9.4
2007-06-18 09:18:01 51°9.741 2°39.172 255.4 13.9 252 9.5
2007-06-18 09:18:06 51°9.735 2°39.143 255.3 13.9 252 9.4
2007-06-18 09:18:11 51°9.729 2°39.113 255.3 13.9 252 9.6
2007-06-18 09:18:16 51°9.723 2°39.084 255.1 13.9 252 9.6
2007-06-18 09:18:21 51°9.717 2°39.055 255.1 13.9 252 9.5
2007-06-18 09:18:26 51°9.711 2°39.026 254.9 13.9 252 9.5
2007-06-18 09:18:31 51°9.705 2°38.997 254.8 13.9 252 9.5
2007-06-18 09:18:36 51°9.699 2°38.967 255 13.9 252 9.6
2007-06-18 09:18:41 51°9.694 2°38.938 255.4 13.9 252 9.7
2007-06-18 09:18:46 51°9.688 2°38.909 255.2 13.9 252 9.7
2007-06-18 09:18:51 51°9.682 2°38.88 254.9 13.9 253 9.6
2007-06-18 09:18:56 51°9.676 2°38.851 255.1 13.9 253 9.7
2007-06-18 09:19:01 51°9.671 2°38.821 255.4 13.8 253 9.7
2007-06-18 09:19:06 51°9.666 2°38.792 255.9 13.9 253 9.8
2007-06-18 09:19:11 51°9.66 2°38.763 255.9 13.9 253 9.7
2007-06-18 09:19:16 51°9.654 2°38.733 255.9 13.9 253 9.7
2007-06-18 09:19:21 51°9.648 2°38.705 255.6 13.8 252 9.8
2007-06-18 09:19:26 51°9.642 2°38.676 255.1 13.8 252 9.7
2007-06-18 09:19:31 51°9.636 2°38.647 254.8 13.8 251 9.7
2007-06-18 09:19:36 51°9.63 2°38.618 254.5 13.9 252 9.7
2007-06-18 09:19:41 51°9.624 2°38.589 254.6 13.8 252 9.8
2007-06-18 09:19:46 51°9.618 2°38.559 254.7 13.8 252 9.8
2007-06-18 09:19:51 51°9.612 2°38.531 254.7 13.8 252 9.8
2007-06-18 09:19:56 51°9.606 2°38.501 255 13.9 252 9.8
2007-06-18 09:20:01 51°9.6 2°38.472 255.2 13.9 253 9.8
2007-06-18 09:20:06 51°9.595 2°38.443 255.4 13.9 253 9.8
2007-06-18 09:20:11 51°9.589 2°38.414 255.4 13.9 253 9.8
2007-06-18 09:20:16 51°9.583 2°38.384 255.5 13.9 253 9.8
2007-06-18 09:20:21 51°9.577 2°38.355 255.6 13.9 253 9.9
2007-06-18 09:20:26 51°9.571 2°38.326 255.6 13.9 252 9.9
2007-06-18 09:20:31 51°9.565 2°38.297 255.2 13.9 252 9.9
2007-06-18 09:20:36 51°9.559 2°38.268 255.2 13.9 252 9.9
2007-06-18 09:20:41 51°9.554 2°38.238 255.2 13.9 253 10
2007-06-18 09:20:46 51°9.548 2°38.209 255.1 13.9 252 10
2007-06-18 09:20:51 51°9.542 2°38.18 255.2 13.9 252 10
2007-06-18 09:20:56 51°9.536 2°38.151 255.3 13.9 252 10
2007-06-18 09:21:01 51°9.53 2°38.122 255.4 13.9 252 10.1
2007-06-18 09:21:06 51°9.524 2°38.092 255.4 13.9 253 10.1
2007-06-18 09:21:11 51°9.518 2°38.063 255.6 13.9 252 10.1
2007-06-18 09:21:16 51°9.513 2°38.034 255.5 14 252 10.2
2007-06-18 09:21:21 51°9.507 2°38.004 255.4 13.9 252 10.2
2007-06-18 09:21:26 51°9.501 2°37.975 255.3 13.9 252 10.2
2007-06-18 09:21:31 51°9.495 2°37.946 255.4 14 252 10.2
2007-06-18 09:21:36 51°9.488 2°37.917 255.2 13.9 251 10.3
2007-06-18 09:21:41 51°9.482 2°37.888 254.1 13.9 250 10.3
2007-06-18 09:21:46 51°9.475 2°37.86 253.2 13.9 250 10.4
2007-06-18 09:21:51 51°9.468 2°37.831 252.7 13.9 249 10.4
2007-06-18 09:21:56 51°9.461 2°37.802 252.1 13.9 249 10.4
2007-06-18 09:22:01 51°9.454 2°37.773 251.8 13.9 249 10.4
2007-06-18 09:22:06 51°9.448 2°37.745 251.8 13.9 249 10.4
2007-06-18 09:22:11 51°9.441 2°37.716 251.9 14 249 10.5
2007-06-18 09:22:16 51°9.434 2°37.687 251.8 13.9 250 10.5
2007-06-18 09:22:21 51°9.428 2°37.658 252.2 13.9 250 10.5
2007-06-18 09:22:26 51°9.421 2°37.629 252.3 14 250 10.5
2007-06-18 09:22:31 51°9.414 2°37.6 252.4 13.9 250 10.6
2007-06-18 09:22:36 51°9.408 2°37.571 252.7 14 250 10.5
2007-06-18 09:22:41 51°9.401 2°37.542 252.7 13.9 250 10.6
2007-06-18 09:22:46 51°9.395 2°37.514 252.9 13.9 250 10.7
2007-06-18 09:22:51 51°9.388 2°37.485 253 13.9 250 10.7
2007-06-18 09:22:56 51°9.381 2°37.456 253 14 249 10.7
2007-06-18 09:23:01 51°9.375 2°37.427 252.7 14 249 10.8
2007-06-18 09:23:06 51°9.367 2°37.398 252.3 14 249 10.8
2007-06-18 09:23:11 51°9.36 2°37.369 252 14 249 10.8
2007-06-18 09:23:16 51°9.354 2°37.34 252 14 249 10.9
2007-06-18 09:23:21 51°9.347 2°37.311 252 14 249 10.8
2007-06-18 09:23:26 51°9.34 2°37.283 252.3 14 249 10.9
2007-06-18 09:23:31 51°9.333 2°37.254 252.4 14 250 11
2007-06-18 09:23:36 51°9.326 2°37.224 252.5 14.1 250 11
2007-06-18 09:23:41 51°9.319 2°37.195 252.8 14.1 249 11
2007-06-18 09:23:46 51°9.313 2°37.166 252.7 14 250 11.1
2007-06-18 09:23:51 51°9.306 2°37.137 252.7 14 249 11.2
2007-06-18 09:23:56 51°9.3 2°37.108 252.2 14 250 11.2
2007-06-18 09:24:01 51°9.293 2°37.079 252.4 14 249 11.1
2007-06-18 09:24:06 51°9.286 2°37.05 252.4 14 250 11.2
2007-06-18 09:24:11 51°9.279 2°37.021 252.4 14 250 11.2
2007-06-18 09:24:16 51°9.273 2°36.992 252.5 14 250 11.3
2007-06-18 09:24:21 51°9.266 2°36.963 252.5 14 250 11.3
2007-06-18 09:24:26 51°9.259 2°36.934 252.5 14 250 11.4
2007-06-18 09:24:31 51°9.252 2°36.905 252.7 14 250 11.4
2007-06-18 09:24:36 51°9.246 2°36.876 252.5 14 250 11.5
2007-06-18 09:24:41 51°9.239 2°36.847 252.5 14 250 11.5
2007-06-18 09:24:46 51°9.232 2°36.818 252.4 14 250 11.6
2007-06-18 09:24:51 51°9.225 2°36.789 252.5 14.1 250 11.6
2007-06-18 09:24:56 51°9.219 2°36.76 252.5 14 250 11.7
2007-06-18 09:25:01 51°9.212 2°36.731 253 14 250 11.6
2007-06-18 09:25:06 51°9.205 2°36.702 252.9 14 250 11.7
2007-06-18 09:25:11 51°9.198 2°36.672 252.8 14.1 250 11.7
2007-06-18 09:25:16 51°9.192 2°36.643 252.8 14.1 249 11.9
2007-06-18 09:25:21 51°9.185 2°36.614 252.4 14.1 250 11.8
2007-06-18 09:25:26 51°9.178 2°36.585 252.5 14.1 250 11.9
2007-06-18 09:25:31 51°9.172 2°36.555 252.5 14.1 250 12
2007-06-18 09:25:36 51°9.165 2°36.526 252.6 14.1 250 12
2007-06-18 09:25:41 51°9.158 2°36.497 252.6 14.1 250 12.1
2007-06-18 09:25:46 51°9.151 2°36.468 252.6 14.1 249 12.2
2007-06-18 09:25:51 51°9.144 2°36.439 252.1 14.2 248 12.3
2007-06-18 09:25:56 51°9.136 2°36.41 251.1 14.2 247 12.3
2007-06-18 09:26:01 51°9.128 2°36.381 250.4 14.2 248 12.5
2007-06-18 09:26:06 51°9.12 2°36.352 250 14.2 247 12.5
2007-06-18 09:26:11 51°9.113 2°36.323 249.6 14.2 247 12.5
2007-06-18 09:26:16 51°9.105 2°36.295 249.5 14.2 247 12.7
2007-06-18 09:26:21 51°9.098 2°36.266 249.2 14.2 247 12.6
2007-06-18 09:26:26 51°9.09 2°36.237 249 14.2 247 12.6
2007-06-18 09:26:31 51°9.082 2°36.208 249.1 14.2 247 12.7
2007-06-18 09:26:36 51°9.074 2°36.18 249.1 14.2 247 12.7
2007-06-18 09:26:41 51°9.066 2°36.151 249.2 14.2 247 12.7
2007-06-18 09:26:46 51°9.059 2°36.122 249.3 14.2 247 12.8
2007-06-18 09:26:51 51°9.051 2°36.093 249.5 14.2 247 12.9
2007-06-18 09:26:56 51°9.043 2°36.064 249.3 14.3 247 12.9
2007-06-18 09:27:01 51°9.035 2°36.035 249.1 14.3 247 13
2007-06-18 09:27:06 51°9.027 2°36.006 249.1 14.3 247 12.9
2007-06-18 09:27:11 51°9.02 2°35.978 249 14.3 247 13
2007-06-18 09:27:16 51°9.012 2°35.948 248.8 14.3 247 13
2007-06-18 09:27:21 51°9.004 2°35.919 249 14.3 247 13.1
2007-06-18 09:27:26 51°8.997 2°35.891 249 14.3 247 13.1
2007-06-18 09:27:31 51°8.989 2°35.862 249.1 14.3 247 13.3
2007-06-18 09:27:36 51°8.981 2°35.833 249.4 14.3 248 13.1
2007-06-18 09:27:41 51°8.973 2°35.803 249.6 14.3 247 13.1
2007-06-18 09:27:46 51°8.966 2°35.774 249.8 14.3 248 13.3
2007-06-18 09:27:51 51°8.958 2°35.745 250.1 14.3 248 13.3
2007-06-18 09:27:56 51°8.951 2°35.716 250.1 14.3 248 13.3
2007-06-18 09:28:01 51°8.943 2°35.687 250.2 14.3 248 13.3
2007-06-18 09:28:06 51°8.936 2°35.657 250.5 14.3 248 13.4
2007-06-18 09:28:11 51°8.928 2°35.628 250.5 14.3 248 13.5
2007-06-18 09:28:16 51°8.921 2°35.598 250.5 14.3 248 13.6
2007-06-18 09:28:21 51°8.913 2°35.569 250.4 14.4 247 13.6
2007-06-18 09:28:26 51°8.906 2°35.54 250.3 14.3 248 13.6
2007-06-18 09:28:31 51°8.898 2°35.511 250.3 14.3 248 13.8
2007-06-18 09:28:36 51°8.891 2°35.481 250.4 14.3 248 13.8
2007-06-18 09:28:41 51°8.883 2°35.452 250.5 14.3 248 13.8
2007-06-18 09:28:46 51°8.876 2°35.423 250.5 14.3 248 13.9
2007-06-18 09:28:51 51°8.868 2°35.393 250.5 14.4 248 13.9
2007-06-18 09:28:56 51°8.861 2°35.364 250.5 14.4 248 14.1
2007-06-18 09:29:01 51°8.854 2°35.334 250.8 14.4 249 14.1
2007-06-18 09:29:06 51°8.847 2°35.304 251.4 14.4 249 14.1
2007-06-18 09:29:11 51°8.84 2°35.275 251.6 14.4 250 14.2
2007-06-18 09:29:16 51°8.833 2°35.245 252.6 14.4 250 14.3
2007-06-18 09:29:21 51°8.826 2°35.215 253.3 14.4 251 14.3
2007-06-18 09:29:26 51°8.819 2°35.185 254 14.4 251 14.3
2007-06-18 09:29:31 51°8.813 2°35.154 254.2 14.5 251 14.4
2007-06-18 09:29:36 51°8.806 2°35.124 254.4 14.4 251 14.5
2007-06-18 09:29:41 51°8.8 2°35.094 254.6 14.5 252 14.6
2007-06-18 09:29:46 51°8.793 2°35.064 254.7 14.4 251 14.6
2007-06-18 09:29:51 51°8.786 2°35.034 254.7 14.5 251 14.8
2007-06-18 09:29:56 51°8.779 2°35.003 254.5 14.5 251 14.8
2007-06-18 09:30:01 51°8.771 2°34.973 254.4 14.5 251 15
2007-06-18 09:30:06 51°8.764 2°34.943 254.4 14.5 251 14.8
2007-06-18 09:30:11 51°8.757 2°34.913 254.2 14.5 251 14.9
2007-06-18 09:30:16 51°8.751 2°34.883 254.2 14.5 251 15.1
2007-06-18 09:30:21 51°8.745 2°34.852 254.4 14.5 251 15.2
2007-06-18 09:30:26 51°8.739 2°34.822 254.5 14.5 252 15.2
2007-06-18 09:30:31 51°8.732 2°34.791 254.7 14.5 251 15.2
2007-06-18 09:30:36 51°8.726 2°34.761 254.3 14.5 251 15.3
2007-06-18 09:30:41 51°8.719 2°34.731 254.3 14.5 251 15.4
2007-06-18 09:30:46 51°8.713 2°34.701 254.4 14.5 252 15.4
2007-06-18 09:30:51 51°8.706 2°34.67 254.7 14.5 252 15
2007-06-18 09:30:56 51°8.7 2°34.64 254.7 14.5 252 15.1
2007-06-18 09:31:01 51°8.694 2°34.609 254.8 14.5 251 15.2
2007-06-18 09:31:06 51°8.688 2°34.579 254.7 14.6 251 15.4
2007-06-18 09:31:11 51°8.681 2°34.548 254.3 14.6 251 15.5
2007-06-18 09:31:16 51°8.675 2°34.518 254 14.6 251 15.7
2007-06-18 09:31:21 51°8.668 2°34.488 254 14.6 250 15.7
2007-06-18 09:31:26 51°8.661 2°34.458 254 14.6 251 15.7
2007-06-18 09:31:31 51°8.655 2°34.427 254.2 14.6 250 15.6
2007-06-18 09:31:36 51°8.648 2°34.397 254.3 14.6 251 15.7
2007-06-18 09:31:41 51°8.642 2°34.367 254.7 14.6 251 15.5
2007-06-18 09:31:46 51°8.635 2°34.336 254.6 14.6 251 15.7
2007-06-18 09:31:51 51°8.629 2°34.306 254.4 14.5 251 15.6
2007-06-18 09:31:56 51°8.622 2°34.275 254.5 14.5 251 15.6
2007-06-18 09:32:01 51°8.616 2°34.245 254.2 14.6 251 15.5
2007-06-18 09:32:06 51°8.609 2°34.215 254.3 14.6 251 15.5
2007-06-18 09:32:11 51°8.602 2°34.185 254.3 14.5 251 15.6
2007-06-18 09:32:16 51°8.596 2°34.154 254.1 14.5 251 15.3
2007-06-18 09:32:21 51°8.589 2°34.124 254.1 14.5 250 15.5
2007-06-18 09:32:26 51°8.583 2°34.094 253.9 14.5 251 15.4
2007-06-18 09:32:31 51°8.576 2°34.064 253.9 14.4 251 15.6
2007-06-18 09:32:36 51°8.57 2°34.034 254 14.4 251 15.4
2007-06-18 09:32:41 51°8.563 2°34.004 254.3 14.4 251 15.4
2007-06-18 09:32:46 51°8.557 2°33.974 254.3 14.4 251 15.6
2007-06-18 09:32:51 51°8.55 2°33.944 254.5 14.4 251 15.7
2007-06-18 09:32:56 51°8.544 2°33.914 254.6 14.4 251 15.6
2007-06-18 09:33:01 51°8.538 2°33.884 254.6 14.4 251 15.7
2007-06-18 09:33:06 51°8.531 2°33.854 254.4 14.4 251 15.5
2007-06-18 09:33:11 51°8.525 2°33.824 254.1 14.4 251 15.7
2007-06-18 09:33:16 51°8.518 2°33.794 254 14.4 251 15.7
2007-06-18 09:33:21 51°8.511 2°33.764 254 14.4 250 15.7
2007-06-18 09:33:26 51°8.505 2°33.734 254 14.4 251 15.7
2007-06-18 09:33:31 51°8.498 2°33.704 254.3 14.4 250 15.7
2007-06-18 09:33:36 51°8.491 2°33.675 253.9 14.4 250 15.6
2007-06-18 09:33:41 51°8.484 2°33.645 253.3 14.4 249 15.4
2007-06-18 09:33:46 51°8.477 2°33.615 252.3 14.4 249 15.4
2007-06-18 09:33:51 51°8.469 2°33.586 251.9 14.4 248 15.6
2007-06-18 09:33:56 51°8.462 2°33.557 251.4 14.4 248 15.3
2007-06-18 09:34:01 51°8.454 2°33.527 251.3 14.4 247 15.5
2007-06-18 09:34:06 51°8.447 2°33.498 251.1 14.4 248 15.6
2007-06-18 09:34:11 51°8.439 2°33.469 251 14.4 248 15.2
2007-06-18 09:34:16 51°8.432 2°33.439 251.1 14.4 247 15.3
2007-06-18 09:34:21 51°8.424 2°33.41 250.9 14.3 249 15.5
2007-06-18 09:34:26 51°8.417 2°33.381 251.5 14.3 248 15.1
2007-06-18 09:34:31 51°8.41 2°33.351 251.4 14.4 248 15.1
2007-06-18 09:34:36 51°8.403 2°33.321 251.4 14.4 248 15
2007-06-18 09:34:41 51°8.395 2°33.292 251.5 14.3 248 15
2007-06-18 09:34:46 51°8.388 2°33.263 251.5 14.4 248 15.2
2007-06-18 09:34:51 51°8.38 2°33.234 251.3 14.4 248 15.4
2007-06-18 09:34:56 51°8.373 2°33.204 251.3 14.3 248 15.4
2007-06-18 09:35:01 51°8.365 2°33.175 251 14.3 248 15.1
2007-06-18 09:35:06 51°8.358 2°33.146 250.8 14.3 247 14.9
2007-06-18 09:35:11 51°8.35 2°33.117 250.7 14.3 248 15.2
2007-06-18 09:35:16 51°8.343 2°33.088 251 14.3 248 15
2007-06-18 09:35:21 51°8.335 2°33.059 251.1 14.3 248 14.9
2007-06-18 09:35:26 51°8.328 2°33.029 251.1 14.3 248 15
2007-06-18 09:35:31 51°8.32 2°33 251.3 14.3 248 15
2007-06-18 09:35:36 51°8.313 2°32.971 251.5 14.3 248 15
2007-06-18 09:35:41 51°8.305 2°32.942 251.6 14.3 248 15
2007-06-18 09:35:46 51°8.298 2°32.912 251.3 14.3 248 15.2
2007-06-18 09:35:51 51°8.291 2°32.883 251.1 14.3 248 15
2007-06-18 09:35:56 51°8.284 2°32.854 251.1 14.3 248 15.3
2007-06-18 09:36:01 51°8.276 2°32.825 251.1 14.4 248 15.3
2007-06-18 09:36:06 51°8.268 2°32.795 251.2 14.4 248 15.5
2007-06-18 09:36:11 51°8.261 2°32.766 251.2 14.3 248 15.5
2007-06-18 09:36:16 51°8.253 2°32.737 251.2 14.3 248 15.8
2007-06-18 09:36:21 51°8.246 2°32.708 251 14.4 247 16.2
2007-06-18 09:36:26 51°8.238 2°32.679 250.9 14.4 248 16.2
2007-06-18 09:36:31 51°8.23 2°32.65 250.9 14.3 248 16.8
2007-06-18 09:36:36 51°8.223 2°32.62 251 14.3 248 17.1
2007-06-18 09:36:41 51°8.215 2°32.591 251 14.4 248 17
2007-06-18 09:36:46 51°8.208 2°32.562 251.1 14.3 248 17.1
2007-06-18 09:36:51 51°8.2 2°32.533 251.1 14.3 248 17
2007-06-18 09:36:56 51°8.193 2°32.504 251.1 14.3 248 17
2007-06-18 09:37:01 51°8.185 2°32.474 251.2 14.4 247 17.1
2007-06-18 09:37:06 51°8.178 2°32.445 250.8 14.3 248 16.8
2007-06-18 09:37:11 51°8.17 2°32.416 251.1 14.3 247 16.7
2007-06-18 09:37:16 51°8.163 2°32.386 251.1 14.3 247 16
2007-06-18 09:37:21 51°8.155 2°32.358 250.4 14.3 245 15.6
2007-06-18 09:37:26 51°8.146 2°32.33 248.4 14.3 243 15.2
2007-06-18 09:37:31 51°8.137 2°32.302 246.2 14.3 243 15.6
2007-06-18 09:37:36 51°8.127 2°32.274 245.2 14.4 241 15.5
2007-06-18 09:37:41 51°8.118 2°32.246 244.1 14.3 241 15.8
2007-06-18 09:37:46 51°8.108 2°32.219 243.5 14.3 240 16.2
2007-06-18 09:37:51 51°8.098 2°32.191 242.6 14.5 240 16.2
2007-06-18 09:37:56 51°8.088 2°32.163 242.2 14.4 240 16.5
2007-06-18 09:38:01 51°8.078 2°32.136 242.2 14.3 239 17.1
2007-06-18 09:38:06 51°8.067 2°32.109 241.6 14.5 240 17.3
2007-06-18 09:38:11 51°8.057 2°32.082 241.6 14.4 240 17.3
2007-06-18 09:38:16 51°8.047 2°32.055 241.8 14.4 239 17.3
2007-06-18 09:38:21 51°8.037 2°32.027 241.8 14.4 239 17.3
2007-06-18 09:38:26 51°8.027 2°32 241.4 14.4 239 17.2
2007-06-18 09:38:31 51°8.016 2°31.973 241.4 14.4 239 17.3
2007-06-18 09:38:36 51°8.006 2°31.946 241.4 14.4 240 17.2
2007-06-18 09:38:41 51°7.996 2°31.918 241.5 14.4 239 17.1
2007-06-18 09:38:46 51°7.986 2°31.89 241.6 14.5 240 17.2
2007-06-18 09:38:51 51°7.976 2°31.863 242.3 14.4 240 17.3
2007-06-18 09:38:56 51°7.966 2°31.835 242.3 14.4 240 17.4
2007-06-18 09:39:01 51°7.956 2°31.808 241.9 14.4 240 17.2
2007-06-18 09:39:06 51°7.946 2°31.781 241.9 14.4 240 17.4
2007-06-18 09:39:11 51°7.936 2°31.753 241.9 14.4 240 17.4
2007-06-18 09:39:16 51°7.926 2°31.726 242.2 14.4 240 17.5
2007-06-18 09:39:21 51°7.916 2°31.699 242.2 14.4 240 17.6
2007-06-18 09:39:26 51°7.905 2°31.672 241.9 14.4 240 17.6
2007-06-18 09:39:31 51°7.895 2°31.644 241.9 14.4 240 17.7
2007-06-18 09:39:36 51°7.886 2°31.616 241.8 14.4 240 17.6
2007-06-18 09:39:41 51°7.876 2°31.589 241.9 14.4 240 17.7
2007-06-18 09:39:46 51°7.866 2°31.561 241.9 14.4 240 17.9
2007-06-18 09:39:51 51°7.856 2°31.534 242 14.4 240 17.8
2007-06-18 09:39:56 51°7.846 2°31.506 242.2 14.4 240 17.9
2007-06-18 09:40:01 51°7.836 2°31.479 241.9 14.4 240 18
2007-06-18 09:40:06 51°7.826 2°31.452 241.9 14.4 240 18.1
2007-06-18 09:40:11 51°7.815 2°31.425 241.7 14.4 240 18.1
2007-06-18 09:40:16 51°7.806 2°31.398 241.7 14.4 239 18.1
2007-06-18 09:40:21 51°7.795 2°31.371 241.6 14.4 239 18.1
2007-06-18 09:40:26 51°7.785 2°31.344 241.3 14.4 239 18.3
2007-06-18 09:40:31 51°7.775 2°31.316 241.2 14.4 240 18.3
2007-06-18 09:40:36 51°7.765 2°31.289 241.6 14.4 239 18.1
2007-06-18 09:40:41 51°7.755 2°31.261 241.5 14.4 240 18.1
2007-06-18 09:40:46 51°7.745 2°31.234 241.7 14.4 239 18.1
2007-06-18 09:40:51 51°7.735 2°31.206 241.6 14.4 239 18
2007-06-18 09:40:56 51°7.725 2°31.179 241.5 14.5 239 17.6
2007-06-18 09:41:01 51°7.715 2°31.152 241.5 14.5 239 18
2007-06-18 09:41:06 51°7.704 2°31.124 241.4 14.4 239 18.3
2007-06-18 09:41:11 51°7.694 2°31.097 241.4 14.5 239 18.4
2007-06-18 09:41:16 51°7.684 2°31.069 241.4 14.5 239 18.3
2007-06-18 09:41:21 51°7.674 2°31.042 241.4 14.4 240 17.9
2007-06-18 09:41:26 51°7.663 2°31.015 241.6 14.4 239 17.5
2007-06-18 09:41:31 51°7.653 2°30.987 241.7 14.5 239 17.9
2007-06-18 09:41:36 51°7.641 2°30.962 240.6 14.4 235 18.4
2007-06-18 09:41:41 51°7.63 2°30.936 237.9 14.4 235 18.8